createdAt,value
2019-02-28T06:26:20.433Z,12.10
2019-02-28T06:28:52.432Z,12.17
2019-02-28T06:31:21.993Z,11.30
2019-02-28T06:33:52.018Z,12.33
2019-02-28T06:36:25.729Z,12.40
2019-02-28T06:38:54.539Z,11.87
2019-02-28T06:41:25.041Z,12.43
2019-02-28T06:43:56.641Z,13.20
2019-02-28T06:46:26.077Z,12.83
2019-02-28T06:49:01.136Z,13.07
2019-02-28T06:51:28.440Z,12.73
2019-02-28T06:53:57.797Z,12.67
2019-02-28T06:56:27.154Z,14.20
2019-02-28T06:58:57.338Z,11.70
2019-02-28T07:01:29.536Z,13.53
2019-02-28T07:03:58.750Z,12.60
2019-02-28T07:06:28.323Z,12.47
2019-02-28T07:09:02.157Z,12.37
2019-02-28T07:11:29.660Z,13.10
2019-02-28T07:13:59.105Z,13.00
2019-02-28T07:16:30.686Z,12.63
2019-02-28T07:19:01.616Z,12.80
2019-02-28T07:21:31.604Z,12.00
2019-02-28T07:24:03.681Z,11.87
2019-02-28T07:26:33.803Z,13.07
2019-02-28T07:29:04.076Z,12.87
2019-02-28T07:31:33.256Z,12.73
2019-02-28T07:34:03.144Z,13.73
2019-02-28T07:36:34.036Z,12.97
2019-02-28T07:39:05.245Z,13.90
2019-02-28T07:41:36.066Z,14.33
2019-02-28T07:44:07.111Z,14.57
2019-02-28T07:46:38.778Z,14.67
2019-02-28T07:49:09.616Z,15.27
2019-02-28T07:51:39.349Z,14.63
2019-02-28T07:54:12.681Z,15.00
2019-02-28T07:56:43.147Z,14.53
2019-02-28T07:59:12.513Z,13.87
2019-02-28T08:01:42.014Z,14.87
2019-02-28T08:04:12.604Z,14.50
2019-02-28T08:06:42.460Z,15.33
2019-02-28T08:09:22.073Z,16.03
2019-02-28T08:11:55.717Z,16.47
2019-02-28T08:14:24.112Z,17.87
2019-02-28T08:16:56.073Z,16.50
2019-02-28T08:19:27.256Z,16.97
2019-02-28T08:21:58.828Z,15.67
2019-02-28T08:24:28.023Z,19.07
2019-02-28T08:26:58.100Z,16.23
2019-02-28T08:29:28.383Z,18.43
2019-02-28T08:31:58.140Z,18.17
2019-02-28T08:34:28.559Z,18.60
2019-02-28T08:36:58.436Z,19.40
2019-02-28T08:39:28.151Z,19.27
2019-02-28T08:42:03.466Z,19.20
2019-02-28T08:44:30.611Z,18.83
2019-02-28T08:47:00.374Z,18.97
2019-02-28T08:49:30.556Z,28.57
2019-02-28T08:52:02.483Z,20.40
2019-02-28T08:54:33.543Z,19.70
2019-02-28T08:57:03.559Z,21.53
2019-02-28T08:59:33.068Z,22.03
2019-02-28T09:02:03.638Z,22.03
2019-02-28T09:04:41.042Z,21.33
2019-02-28T09:07:05.051Z,22.63
2019-02-28T09:09:37.339Z,22.67
2019-02-28T09:12:08.012Z,23.67
2019-02-28T09:14:38.564Z,22.93
2019-02-28T09:17:08.368Z,24.27
2019-02-28T09:19:38.555Z,24.50
2019-02-28T09:22:08.543Z,25.13
2019-02-28T09:24:38.535Z,24.13
2019-02-28T09:27:08.813Z,24.97
2019-02-28T09:29:38.302Z,23.90
2019-02-28T09:32:10.194Z,23.70
2019-02-28T09:34:41.247Z,22.50
2019-02-28T09:37:11.842Z,22.70
2019-02-28T09:39:41.801Z,22.87
2019-02-28T09:42:15.077Z,22.87
2019-02-28T09:44:44.445Z,24.27
2019-02-28T09:47:14.655Z,25.23
2019-02-28T09:49:47.132Z,23.40
2019-02-28T09:52:17.012Z,22.87
2019-02-28T09:54:47.039Z,23.63
2019-02-28T09:57:18.961Z,22.97
2019-02-28T09:59:48.654Z,25.07
2019-02-28T10:02:18.232Z,25.80
2019-02-28T10:04:48.122Z,23.23
2019-02-28T10:07:17.786Z,24.63
2019-02-28T10:09:49.292Z,24.40
2019-02-28T10:12:19.743Z,24.77
2019-02-28T10:14:51.981Z,25.23
2019-02-28T10:17:22.736Z,24.37
2019-02-28T10:19:52.361Z,25.07
2019-02-28T10:22:23.292Z,26.87
2019-02-28T10:24:53.271Z,26.13
2019-02-28T10:27:26.883Z,25.70
2019-02-28T10:29:55.176Z,25.20
2019-02-28T10:32:25.340Z,24.37
2019-02-28T10:34:58.324Z,26.20
2019-02-28T10:37:27.437Z,25.40
2019-02-28T10:39:57.863Z,26.27
2019-02-28T10:42:29.199Z,29.20
2019-02-28T10:44:58.819Z,27.67
2019-02-28T10:47:30.030Z,25.93
2019-02-28T10:50:00.416Z,27.30
2019-02-28T10:52:30.789Z,27.93
2019-02-28T10:55:00.261Z,27.67
2019-02-28T10:57:30.362Z,26.30
2019-02-28T11:00:01.701Z,28.73
2019-02-28T11:02:31.078Z,24.40
2019-02-28T11:05:00.727Z,27.23
2019-02-28T11:07:31.170Z,28.43
2019-02-28T11:10:02.276Z,25.70
2019-02-28T11:12:32.019Z,27.07
2019-02-28T11:15:02.270Z,27.37
2019-02-28T11:17:34.173Z,28.27
2019-02-28T11:20:04.702Z,28.47
2019-02-28T11:22:36.539Z,28.30
2019-02-28T11:25:11.137Z,28.60
2019-02-28T11:27:42.564Z,28.60
2019-02-28T11:30:21.651Z,26.50
2019-02-28T11:32:52.242Z,28.00
2019-02-28T11:35:23.183Z,29.03
2019-02-28T11:37:55.360Z,29.17
2019-02-28T11:40:27.447Z,27.87
2019-02-28T11:42:59.411Z,28.57
2019-02-28T11:45:38.630Z,27.53
2019-02-28T11:48:12.730Z,26.60
2019-02-28T11:50:44.927Z,26.60
2019-02-28T11:53:18.969Z,25.40
2019-02-28T11:55:53.318Z,25.53
2019-02-28T11:58:22.551Z,26.80
2019-02-28T12:00:52.230Z,26.53
2019-02-28T12:03:22.385Z,26.73
2019-02-28T12:05:52.869Z,26.27
2019-02-28T12:08:23.894Z,25.33
2019-02-28T12:10:53.270Z,28.10
2019-02-28T12:13:23.511Z,25.97
2019-02-28T12:15:53.723Z,25.27
2019-02-28T12:18:25.983Z,23.70
2019-02-28T12:20:55.392Z,25.20
2019-02-28T12:23:25.787Z,25.87
2019-02-28T12:25:57.353Z,24.77
2019-02-28T12:28:27.743Z,24.87
2019-02-28T12:30:57.266Z,25.13
2019-02-28T12:33:28.187Z,24.57
2019-02-28T12:35:58.395Z,24.37
2019-02-28T12:38:29.178Z,24.43
2019-02-28T12:40:59.057Z,24.63
2019-02-28T12:43:31.305Z,23.40
2019-02-28T12:46:01.444Z,23.60
2019-02-28T12:48:31.274Z,25.33
2019-02-28T12:51:02.358Z,23.57
2019-02-28T12:53:32.626Z,23.03
2019-02-28T12:56:02.734Z,24.13
2019-02-28T12:58:38.703Z,23.60
2019-02-28T13:01:08.451Z,23.37
2019-02-28T13:03:38.012Z,24.13
2019-02-28T13:06:07.742Z,24.63
2019-02-28T13:08:38.695Z,24.80
2019-02-28T13:11:08.318Z,25.30
2019-02-28T13:13:38.525Z,25.80
2019-02-28T13:16:08.709Z,23.77
2019-02-28T13:18:39.564Z,23.63
2019-02-28T13:21:11.655Z,25.60
2019-02-28T13:23:41.433Z,24.80
2019-02-28T13:26:11.651Z,25.47
2019-02-28T13:28:41.568Z,24.93
2019-02-28T13:31:13.511Z,25.57
2019-02-28T13:33:48.602Z,25.63
2019-02-28T13:36:18.370Z,27.20
2019-02-28T13:38:49.517Z,26.33
2019-02-28T13:41:22.103Z,25.57
2019-02-28T13:43:54.697Z,25.93
2019-02-28T13:46:24.257Z,24.87
2019-02-28T13:48:54.345Z,25.60
2019-02-28T13:51:24.194Z,26.33
2019-02-28T13:53:55.702Z,28.30
2019-02-28T13:56:25.223Z,27.73
2019-02-28T13:58:57.298Z,27.77
2019-02-28T14:01:30.576Z,27.83
2019-02-28T14:04:00.272Z,29.13
2019-02-28T14:06:30.323Z,28.17
2019-02-28T14:09:00.723Z,29.80
2019-02-28T14:11:31.265Z,28.33
2019-02-28T14:14:00.894Z,28.13
2019-02-28T14:16:30.961Z,36.67
2019-02-28T14:19:00.985Z,29.77
2019-02-28T14:21:34.383Z,29.53
2019-02-28T14:24:03.444Z,30.40
2019-02-28T14:26:42.596Z,30.17
2019-02-28T14:29:10.606Z,30.93
2019-02-28T14:31:39.279Z,29.50
2019-02-28T14:34:08.695Z,31.43
2019-02-28T14:36:38.212Z,28.87
2019-02-28T14:39:09.803Z,30.80
2019-02-28T14:41:39.209Z,31.63
2019-02-28T14:44:10.034Z,32.30
2019-02-28T14:46:39.812Z,31.60
2019-02-28T14:49:12.542Z,30.70
2019-02-28T14:51:41.123Z,30.97
2019-02-28T14:54:11.105Z,32.37
2019-02-28T14:56:42.342Z,32.47
2019-02-28T14:59:12.497Z,34.43
2019-02-28T15:01:42.338Z,42.73
2019-02-28T15:04:12.550Z,34.40
2019-02-28T15:06:42.188Z,35.70
2019-02-28T15:09:17.530Z,35.97
2019-02-28T15:11:48.190Z,36.47
2019-02-28T15:14:18.698Z,34.77
2019-02-28T15:16:48.433Z,35.07
2019-02-28T15:19:21.478Z,38.13
2019-02-28T15:21:49.756Z,37.23
2019-02-28T15:30:16.534Z,37.37
2019-02-28T15:32:47.022Z,40.27
2019-02-28T15:35:19.833Z,39.70
2019-02-28T15:37:50.441Z,40.17
2019-02-28T15:40:34.797Z,37.73
2019-02-28T15:43:04.915Z,37.17
2019-02-28T15:45:36.209Z,37.77
2019-02-28T15:48:06.861Z,39.30
2019-02-28T15:50:36.218Z,38.77
2019-02-28T15:53:07.799Z,38.13
2019-02-28T15:55:38.136Z,38.03
2019-02-28T15:58:10.116Z,38.40
